createdAt,value
2022-09-21T00:00:51.879Z,102349.03
2022-09-21T00:03:18.857Z,102346.38
2022-09-21T00:05:45.688Z,102354.47
2022-09-21T00:08:13.910Z,102357.13
2022-09-21T00:10:40.387Z,102357.22
2022-09-21T00:13:08.304Z,102345.78
2022-09-21T00:15:34.929Z,102359.94
2022-09-21T00:18:01.788Z,102354.88
2022-09-21T00:20:29.134Z,102324.88
2022-09-21T00:22:55.562Z,102331.66
2022-09-21T00:25:21.925Z,102356.84
2022-09-21T00:27:51.154Z,102355.34
2022-09-21T00:30:18.189Z,102359.97
2022-09-21T00:32:44.698Z,102361.75
2022-09-21T00:35:11.053Z,102357.56
2022-09-21T00:37:37.554Z,102362.94
2022-09-21T00:40:04.675Z,102365.84
2022-09-21T00:42:34.136Z,102361.69
2022-09-21T00:45:01.092Z,102368.00
2022-09-21T00:47:40.536Z,102356.94
2022-09-21T00:50:11.884Z,102342.53
2022-09-21T00:52:43.731Z,102364.31
2022-09-21T00:55:23.815Z,102379.25
2022-09-21T00:57:56.682Z,102365.41
2022-09-21T01:00:23.368Z,102369.88
2022-09-21T01:02:49.800Z,102374.25
2022-09-21T01:05:16.147Z,102338.22
2022-09-21T01:07:46.198Z,102375.28
2022-09-21T01:10:17.524Z,102352.81
2022-09-21T01:12:50.002Z,102376.28
2022-09-21T01:15:36.577Z,102374.66
2022-09-21T01:18:17.984Z,102375.78
2022-09-21T01:21:09.022Z,102372.34
2022-09-21T01:23:38.400Z,102372.50
2022-09-21T01:26:29.791Z,102377.81
2022-09-21T01:29:02.182Z,102374.38
2022-09-21T01:31:35.190Z,102377.13
2022-09-21T01:34:12.246Z,102357.47
2022-09-21T01:36:41.960Z,102373.78
2022-09-21T01:39:13.103Z,102373.03
2022-09-21T01:41:44.377Z,102376.53
2022-09-21T01:44:17.462Z,102374.09
2022-09-21T01:46:46.324Z,102382.00
2022-09-21T01:49:29.684Z,102377.69
2022-09-21T01:52:02.338Z,102383.94
2022-09-21T01:54:38.074Z,102376.94
2022-09-21T01:57:16.202Z,102385.75
2022-09-21T02:00:05.602Z,102380.44
2022-09-21T02:02:38.500Z,102385.91
2022-09-21T02:05:06.396Z,102372.72
2022-09-21T02:07:34.632Z,102378.22
2022-09-21T02:10:03.546Z,102385.38
2022-09-21T02:12:32.954Z,102387.19
2022-09-21T02:15:00.600Z,102390.84
2022-09-21T02:17:41.123Z,102352.88
2022-09-21T02:20:07.694Z,102379.53
2022-09-21T02:23:03.468Z,102380.47
2022-09-21T02:25:48.737Z,102385.78
2022-09-21T02:28:47.423Z,102390.22
2022-09-21T02:31:23.035Z,102388.69
2022-09-21T02:34:10.531Z,102393.13
2022-09-21T02:36:49.003Z,102372.59
2022-09-21T02:39:19.531Z,102396.81
2022-09-21T02:42:05.888Z,102393.22
2022-09-21T02:44:46.378Z,102399.53
2022-09-21T02:47:22.173Z,102395.94
2022-09-21T02:49:54.704Z,102389.84
2022-09-21T02:52:23.419Z,102379.47
2022-09-21T02:54:53.689Z,102394.84
2022-09-21T02:57:21.781Z,102396.94
2022-09-21T02:59:48.580Z,102395.44
2022-09-21T03:02:15.453Z,102392.94
2022-09-21T03:04:47.099Z,102387.66
2022-09-21T03:07:15.578Z,102397.25
2022-09-21T03:09:42.119Z,102399.13
2022-09-21T03:12:08.591Z,102401.84
2022-09-21T03:14:34.995Z,102410.50
2022-09-21T03:17:01.396Z,102408.72
2022-09-21T03:19:29.311Z,102406.00
2022-09-21T03:21:55.665Z,102410.91
2022-09-21T03:24:40.778Z,102415.03
2022-09-21T03:27:08.805Z,102411.19
2022-09-21T03:29:35.258Z,102377.50
2022-09-21T03:32:01.859Z,102407.03
2022-09-21T03:34:28.194Z,102416.47
2022-09-21T03:36:55.054Z,102410.03
2022-09-21T03:39:21.468Z,102414.94
2022-09-21T03:41:48.110Z,102417.28
2022-09-21T03:44:16.332Z,102394.72
2022-09-21T03:46:42.873Z,102420.78
2022-09-21T03:49:09.382Z,102419.53
2022-09-21T03:51:35.749Z,102416.34
2022-09-21T03:54:02.114Z,102416.00
2022-09-21T03:56:28.701Z,102421.84
2022-09-21T03:58:55.173Z,102420.56
2022-09-21T04:01:21.603Z,102426.47
2022-09-21T04:03:48.016Z,102407.88
2022-09-21T04:06:14.758Z,102362.25
2022-09-21T04:08:42.392Z,102413.34
2022-09-21T04:11:11.829Z,102420.19
2022-09-21T04:13:38.642Z,102400.28
2022-09-21T04:16:05.591Z,102401.25
2022-09-21T04:18:32.393Z,102388.47
2022-09-21T04:20:59.243Z,102411.69
2022-09-21T04:23:25.614Z,102416.34
2022-09-21T04:25:54.092Z,102424.41
2022-09-21T04:28:21.533Z,102408.13
2022-09-21T04:30:48.011Z,102416.09
2022-09-21T04:33:14.898Z,102418.75
2022-09-21T04:35:41.214Z,102407.63
2022-09-21T04:38:07.702Z,102411.22
2022-09-21T04:40:34.110Z,102365.97
2022-09-21T04:43:00.920Z,102410.38
2022-09-21T04:45:27.284Z,102411.22
2022-09-21T04:47:53.695Z,102414.91
2022-09-21T04:50:20.384Z,102419.19
2022-09-21T04:52:47.624Z,102420.81
2022-09-21T04:55:14.028Z,102414.38
2022-09-21T04:57:40.439Z,102425.00
2022-09-21T05:00:07.606Z,102431.88
2022-09-21T05:02:34.050Z,102416.00
2022-09-21T05:05:00.495Z,102421.94
2022-09-21T05:07:26.838Z,102424.59
2022-09-21T05:10:05.299Z,102432.72
2022-09-21T05:12:33.250Z,102441.50
2022-09-21T05:14:59.796Z,102447.81
2022-09-21T05:17:26.202Z,102443.44
2022-09-21T05:19:53.651Z,102446.28
2022-09-21T05:22:20.604Z,102443.88
2022-09-21T05:24:47.733Z,102450.91
2022-09-21T05:27:14.446Z,102460.50
2022-09-21T05:29:41.700Z,102424.50
2022-09-21T05:32:13.889Z,102458.72
2022-09-21T05:34:48.030Z,102425.88
2022-09-21T05:37:17.114Z,102468.25
2022-09-21T05:39:43.730Z,102456.75
2022-09-21T05:42:10.883Z,102457.34
2022-09-21T05:44:37.788Z,102462.47
2022-09-21T05:47:10.889Z,102460.34
2022-09-21T05:49:49.083Z,102462.84
2022-09-21T05:52:41.691Z,102456.19
2022-09-21T05:55:45.025Z,102458.66
2022-09-21T05:58:28.334Z,102448.91
2022-09-21T06:01:13.998Z,102454.09
2022-09-21T06:03:42.222Z,102453.00
2022-09-21T06:06:10.147Z,102428.00
2022-09-21T06:08:36.532Z,102459.56
2022-09-21T06:11:03.073Z,102463.78
2022-09-21T06:13:29.466Z,102454.69
2022-09-21T06:15:55.807Z,102459.78
2022-09-21T06:18:22.161Z,102454.56
2022-09-21T06:20:48.525Z,102467.34
2022-09-21T06:23:15.568Z,102469.84
2022-09-21T06:25:41.983Z,102468.50
2022-09-21T06:28:11.276Z,102439.28
2022-09-21T06:30:39.366Z,102474.03
2022-09-21T06:33:07.233Z,102474.47
2022-09-21T06:35:35.445Z,102471.63
2022-09-21T06:38:04.942Z,102462.59
2022-09-21T06:40:32.562Z,102473.28
2022-09-21T06:43:00.526Z,102477.28
2022-09-21T06:45:28.033Z,102476.06
2022-09-21T06:47:54.502Z,102470.34
2022-09-21T06:50:21.689Z,102469.00
2022-09-21T06:52:48.150Z,102481.66
2022-09-21T06:55:15.039Z,102474.06
2022-09-21T06:57:41.412Z,102470.06
2022-09-21T07:00:10.795Z,102484.31
2022-09-21T07:02:37.289Z,102476.03
2022-09-21T07:05:04.622Z,102491.94
2022-09-21T07:07:31.549Z,102487.78
2022-09-21T07:10:12.088Z,102493.25
2022-09-21T07:12:41.354Z,102493.41
2022-09-21T07:15:10.329Z,102489.84
2022-09-21T07:17:38.643Z,102496.19
2022-09-21T07:20:07.735Z,102497.06
2022-09-21T07:22:34.353Z,102489.22
2022-09-21T07:25:01.534Z,102500.88
2022-09-21T07:27:29.687Z,102490.41
2022-09-21T07:29:56.073Z,102491.53
2022-09-21T07:32:22.512Z,102491.72
2022-09-21T07:34:49.192Z,102490.97
2022-09-21T07:37:16.133Z,102490.47
2022-09-21T07:39:42.510Z,102485.22
2022-09-21T07:42:08.953Z,102495.91
2022-09-21T07:44:35.359Z,102478.03
2022-09-21T07:47:03.471Z,102497.94
2022-09-21T07:49:30.597Z,102498.13
2022-09-21T07:52:01.396Z,102502.69
2022-09-21T07:54:30.435Z,102489.75
2022-09-21T07:57:15.666Z,102479.88
2022-09-21T07:59:42.040Z,102498.88
2022-09-21T08:02:08.488Z,102486.84
2022-09-21T08:04:34.974Z,102498.34
2022-09-21T08:07:01.341Z,102494.03
2022-09-21T08:09:27.661Z,102501.50
2022-09-21T08:11:55.696Z,102495.56
2022-09-21T08:14:26.127Z,102501.81
2022-09-21T08:16:53.376Z,102498.78
2022-09-21T08:19:20.553Z,102476.22
2022-09-21T08:21:53.506Z,102506.19
2022-09-21T08:24:22.885Z,102509.13
2022-09-21T08:26:52.112Z,102480.13
2022-09-21T08:29:18.773Z,102506.00
2022-09-21T08:31:46.538Z,102508.06
2022-09-21T08:34:13.177Z,102508.94
2022-09-21T08:36:39.836Z,102499.44
2022-09-21T08:39:07.955Z,102498.69
2022-09-21T08:41:40.550Z,102508.81
2022-09-21T08:44:20.964Z,102513.19
2022-09-21T08:47:09.598Z,102506.25
2022-09-21T08:49:40.252Z,102490.59
2022-09-21T08:52:15.660Z,102510.25
2022-09-21T08:54:57.086Z,102508.84
2022-09-21T08:57:29.137Z,102503.69
2022-09-21T08:59:55.763Z,102512.41
2022-09-21T09:02:47.623Z,102491.13
2022-09-21T09:05:23.069Z,102509.00
2022-09-21T09:07:53.154Z,102514.75
2022-09-21T09:10:39.538Z,102508.03
2022-09-21T09:13:20.874Z,102515.28
2022-09-21T09:15:53.186Z,102520.19
2022-09-21T09:18:42.755Z,102521.19
2022-09-21T09:21:15.352Z,102520.72
2022-09-21T09:23:51.676Z,102524.41
2022-09-21T09:26:47.622Z,102526.22
2022-09-21T09:29:47.874Z,102519.00
2022-09-21T09:32:15.517Z,102524.13
2022-09-21T09:34:53.752Z,102520.00
2022-09-21T09:37:30.153Z,102524.97
2022-09-21T09:40:00.264Z,102529.31
2022-09-21T09:43:01.289Z,102528.41
2022-09-21T09:45:43.486Z,102523.34
2022-09-21T09:48:27.045Z,102526.53
2022-09-21T09:50:53.437Z,102530.44
2022-09-21T09:53:23.864Z,102526.41
2022-09-21T09:55:52.480Z,102530.00
2022-09-21T09:58:27.950Z,102524.25
2022-09-21T10:00:57.697Z,102530.88
2022-09-21T10:03:27.290Z,102530.75
2022-09-21T10:05:54.891Z,102522.06
2022-09-21T10:08:36.299Z,102523.69
2022-09-21T10:11:03.726Z,102524.34
2022-09-21T10:13:37.767Z,102530.22
2022-09-21T10:16:23.635Z,102519.66
2022-09-21T10:18:57.310Z,102520.09
2022-09-21T10:21:26.841Z,102528.50
2022-09-21T10:23:59.329Z,102507.91
2022-09-21T10:26:38.779Z,102526.38
2022-09-21T10:29:23.322Z,102524.00
2022-09-21T10:32:03.469Z,102521.28
2022-09-21T10:34:32.290Z,102503.00
2022-09-21T10:37:02.118Z,102515.63
2022-09-21T10:39:31.154Z,102507.41
2022-09-21T10:42:00.495Z,102514.75
2022-09-21T10:44:35.080Z,102500.91
2022-09-21T10:47:16.803Z,102501.38
2022-09-21T10:49:48.247Z,102504.28
2022-09-21T10:52:14.813Z,102506.06
2022-09-21T10:54:41.993Z,102494.00
2022-09-21T10:57:14.837Z,102496.28
2022-09-21T10:59:41.363Z,102479.50
2022-09-21T11:02:26.640Z,102493.94
2022-09-21T11:05:07.994Z,102496.91
2022-09-21T11:07:41.219Z,102495.88
2022-09-21T11:10:34.170Z,102504.25
2022-09-21T11:13:18.791Z,102500.22
2022-09-21T11:16:01.902Z,102508.97
2022-09-21T11:18:46.696Z,102493.16
2022-09-21T11:21:27.355Z,102490.88
2022-09-21T11:24:31.802Z,102461.66
2022-09-21T11:27:28.182Z,102504.47
2022-09-21T11:30:01.748Z,102502.56
2022-09-21T11:33:05.315Z,102495.34
2022-09-21T11:35:58.660Z,102493.75
2022-09-21T11:38:39.907Z,102492.22
2022-09-21T11:41:36.250Z,102494.16
2022-09-21T11:44:17.066Z,102496.19
2022-09-21T11:47:12.279Z,102495.34
2022-09-21T11:49:47.518Z,102493.66
2022-09-21T11:52:26.287Z,102491.78
2022-09-21T11:55:14.984Z,102496.56
2022-09-21T11:57:55.083Z,102490.69
2022-09-21T12:00:23.197Z,102492.16
2022-09-21T12:03:19.400Z,102488.50
2022-09-21T12:05:58.223Z,102480.13
2022-09-21T12:08:55.322Z,102475.50
2022-09-21T12:11:27.749Z,102478.19
2022-09-21T12:14:09.511Z,102479.88
2022-09-21T12:16:44.089Z,102474.63
2022-09-21T12:19:23.935Z,102477.00
2022-09-21T12:21:53.415Z,102475.66
2022-09-21T12:24:32.121Z,102474.53
2022-09-21T12:27:05.369Z,102463.59
2022-09-21T12:29:47.637Z,102436.25
2022-09-21T12:32:56.196Z,102462.94
2022-09-21T12:35:49.673Z,102471.50
2022-09-21T12:38:27.554Z,102460.03
2022-09-21T12:41:16.293Z,102453.50
2022-09-21T12:43:55.089Z,102444.69
2022-09-21T12:46:26.137Z,102449.34
2022-09-21T12:48:53.014Z,102451.34
2022-09-21T12:51:34.457Z,102451.31
2022-09-21T12:54:19.705Z,102455.50
2022-09-21T12:57:29.750Z,102450.94
2022-09-21T13:00:15.902Z,102453.25
2022-09-21T13:03:11.406Z,102443.66
2022-09-21T13:06:20.212Z,102443.59
2022-09-21T13:11:21.822Z,102436.19
2022-09-21T13:13:53.260Z,102433.56
2022-09-21T13:16:29.767Z,102432.28
2022-09-21T13:19:02.265Z,102436.59
2022-09-21T13:21:32.046Z,102396.06
2022-09-21T13:23:58.365Z,102429.09
2022-09-21T13:26:51.733Z,102426.09
2022-09-21T13:29:20.692Z,102430.06
2022-09-21T13:32:10.759Z,102428.41
2022-09-21T13:34:42.570Z,102432.19
2022-09-21T13:37:14.436Z,102437.31
2022-09-21T13:40:02.402Z,102429.47
2022-09-21T13:42:34.808Z,102426.78
2022-09-21T13:45:04.709Z,102429.84
2022-09-21T13:47:38.451Z,102423.72
2022-09-21T13:50:12.542Z,102410.72
2022-09-21T13:52:51.964Z,102373.44
2022-09-21T13:55:29.409Z,102409.34
2022-09-21T13:57:58.839Z,102402.06
2022-09-21T14:00:33.476Z,102404.88
2022-09-21T14:03:04.668Z,102409.53
2022-09-21T14:05:45.155Z,102362.34
2022-09-21T14:08:14.471Z,102404.06
2022-09-21T14:10:50.399Z,102399.78
2022-09-21T14:13:26.958Z,102397.06
2022-09-21T14:15:53.371Z,102397.91
2022-09-21T14:18:34.906Z,102389.72
2022-09-21T14:21:09.370Z,102369.94
2022-09-21T14:23:37.818Z,102381.50
2022-09-21T14:26:43.768Z,102389.78
2022-09-21T14:29:38.438Z,102377.41
2022-09-21T14:32:14.148Z,102388.28
2022-09-21T14:34:44.523Z,102383.81
2022-09-21T14:37:28.880Z,102381.50
2022-09-21T14:39:56.846Z,102374.50
2022-09-21T14:42:28.137Z,102362.25
2022-09-21T14:45:02.299Z,102383.13
2022-09-21T14:47:48.055Z,102374.03
2022-09-21T14:50:19.556Z,102375.00
2022-09-21T14:53:32.470Z,102374.41
2022-09-21T14:56:22.564Z,102366.47
2022-09-21T14:59:15.858Z,102364.09
2022-09-21T15:01:58.773Z,102364.66
2022-09-21T15:04:39.183Z,102365.47
2022-09-21T15:07:52.345Z,102359.44
2022-09-21T15:10:59.893Z,102354.88
2022-09-21T15:13:46.514Z,102353.53
2022-09-21T15:16:25.899Z,102358.16
2022-09-21T15:19:05.852Z,102360.66
2022-09-21T15:21:32.928Z,102354.38
2022-09-21T15:24:10.092Z,102347.19
2022-09-21T15:26:40.745Z,102342.53
2022-09-21T15:29:10.683Z,102347.31
2022-09-21T15:31:42.570Z,102347.53
2022-09-21T15:34:10.930Z,102308.69
2022-09-21T15:36:40.719Z,102345.78
2022-09-21T15:39:20.499Z,102345.78
2022-09-21T15:41:50.546Z,102319.13
2022-09-21T15:44:21.510Z,102336.84
2022-09-21T15:46:51.653Z,102340.41
2022-09-21T15:49:22.863Z,102341.41
2022-09-21T15:51:57.142Z,102341.22
2022-09-21T15:54:30.499Z,102338.97
2022-09-21T15:57:04.685Z,102348.31
2022-09-21T15:59:34.626Z,102343.59
2022-09-21T16:02:12.430Z,102343.78
2022-09-21T16:04:49.358Z,102344.72
2022-09-21T16:07:34.280Z,102350.75
2022-09-21T16:10:02.531Z,102352.63
2022-09-21T16:12:38.257Z,102343.50
2022-09-21T16:15:15.310Z,102318.09
2022-09-21T16:17:55.006Z,102345.31
2022-09-21T16:20:23.500Z,102337.53
2022-09-21T16:22:55.328Z,102349.00
2022-09-21T16:25:35.147Z,102339.97
2022-09-21T16:28:07.125Z,102343.59
2022-09-21T16:30:51.152Z,102343.09
2022-09-21T16:33:49.228Z,102354.53
2022-09-21T16:36:25.506Z,102350.00
2022-09-21T16:38:56.159Z,102341.75
2022-09-21T16:41:25.256Z,102343.72
2022-09-21T16:43:52.062Z,102342.41
2022-09-21T16:46:18.853Z,102351.63
2022-09-21T16:48:45.295Z,102353.66
2022-09-21T16:51:13.545Z,102345.69
2022-09-21T16:53:40.175Z,102337.50
2022-09-21T16:56:15.296Z,102348.13
2022-09-21T16:58:43.609Z,102356.03
2022-09-21T17:01:12.918Z,102355.88
2022-09-21T17:03:42.673Z,102341.00
2022-09-21T17:06:17.794Z,102350.88
2022-09-21T17:08:48.129Z,102355.09
2022-09-21T17:11:23.043Z,102356.25
2022-09-21T17:13:50.372Z,102356.19
2022-09-21T17:16:18.549Z,102351.38
2022-09-21T17:18:45.991Z,102356.94
2022-09-21T17:21:12.969Z,102356.31
2022-09-21T17:23:40.047Z,102346.34
2022-09-21T17:26:17.544Z,102356.47
2022-09-21T17:28:44.956Z,102362.22
2022-09-21T17:31:13.821Z,102356.00
2022-09-21T17:33:40.738Z,102354.19
2022-09-21T17:36:16.112Z,102348.06
2022-09-21T17:38:43.526Z,102350.47
2022-09-21T17:41:43.154Z,102351.75
2022-09-21T17:44:28.570Z,102342.66
2022-09-21T17:46:58.613Z,102353.66
2022-09-21T17:49:25.805Z,102358.81
2022-09-21T17:52:10.973Z,102350.38
2022-09-21T17:54:39.799Z,102349.31
2022-09-21T17:57:28.420Z,102328.78
2022-09-21T18:00:04.211Z,102339.84
2022-09-21T18:02:30.665Z,102355.97
2022-09-21T18:05:04.517Z,102362.13
2022-09-21T18:07:31.218Z,102352.19
2022-09-21T18:09:57.847Z,102343.47
2022-09-21T18:12:50.785Z,102359.31
2022-09-21T18:15:27.630Z,102365.84
2022-09-21T18:18:12.693Z,102362.91
2022-09-21T18:21:03.590Z,102362.22
2022-09-21T18:23:48.545Z,102356.53
2022-09-21T18:26:18.198Z,102363.97
2022-09-21T18:28:47.629Z,102366.44
2022-09-21T18:31:51.963Z,102368.84
2022-09-21T18:34:54.627Z,102370.69
2022-09-21T18:37:32.121Z,102371.69
2022-09-21T18:40:21.800Z,102365.94
2022-09-21T18:43:26.089Z,102367.63
2022-09-21T18:46:01.210Z,102367.72
2022-09-21T18:48:39.637Z,102368.31
2022-09-21T18:51:39.402Z,102370.75
2022-09-21T18:54:11.655Z,102375.97
2022-09-21T18:56:39.164Z,102367.03
2022-09-21T18:59:07.066Z,102376.53
2022-09-21T19:01:34.200Z,102377.81
2022-09-21T19:04:01.364Z,102365.25
2022-09-21T19:06:47.331Z,102362.59
2022-09-21T19:09:57.284Z,102371.91
2022-09-21T19:12:23.826Z,102373.47
2022-09-21T19:15:01.882Z,102362.00
2022-09-21T19:18:05.980Z,102370.88
2022-09-21T19:20:46.669Z,102368.00
2022-09-21T19:23:25.081Z,102369.44
2022-09-21T19:25:59.473Z,102355.78
2022-09-21T19:28:36.315Z,102364.13
2022-09-21T19:31:09.718Z,102372.91
2022-09-21T19:33:50.089Z,102377.38
2022-09-21T19:36:17.792Z,102379.66
2022-09-21T19:38:44.554Z,102381.81
2022-09-21T19:41:19.752Z,102383.09
2022-09-21T19:43:54.539Z,102391.34
2022-09-21T19:46:26.276Z,102382.91
2022-09-21T19:48:59.865Z,102384.94
2022-09-21T19:51:37.666Z,102380.03
2022-09-21T19:54:31.152Z,102378.53
2022-09-21T19:57:16.603Z,102390.59
2022-09-21T19:59:43.620Z,102386.47
2022-09-21T20:02:54.005Z,102382.50
2022-09-21T20:05:29.444Z,102390.00
2022-09-21T20:08:16.395Z,102397.78
2022-09-21T20:10:54.111Z,102391.16
2022-09-21T20:13:31.769Z,102395.97
2022-09-21T20:16:09.066Z,102397.97
2022-09-21T20:18:56.180Z,102400.84
2022-09-21T20:21:26.186Z,102393.28
2022-09-21T20:23:58.754Z,102389.97
2022-09-21T20:26:27.350Z,102390.41
2022-09-21T20:28:54.355Z,102395.00
2022-09-21T20:31:23.286Z,102392.41
2022-09-21T20:33:50.338Z,102396.16
2022-09-21T20:36:16.799Z,102389.28
2022-09-21T20:38:43.966Z,102364.41
2022-09-21T20:41:16.385Z,102392.94
2022-09-21T20:43:43.098Z,102374.63
2022-09-21T20:46:10.795Z,102386.72
2022-09-21T20:48:37.647Z,102402.53
2022-09-21T20:51:06.261Z,102395.66
2022-09-21T20:53:33.728Z,102404.63
2022-09-21T20:56:03.668Z,102400.34
2022-09-21T20:58:30.852Z,102397.91
2022-09-21T21:01:04.028Z,102396.28
2022-09-21T21:03:30.549Z,102374.16
2022-09-21T21:06:13.945Z,102399.06
2022-09-21T21:08:40.629Z,102382.25
2022-09-21T21:11:07.158Z,102397.66
2022-09-21T21:13:33.834Z,102388.97
2022-09-21T21:16:00.271Z,102382.16
2022-09-21T21:18:27.829Z,102382.16
2022-09-21T21:20:54.294Z,102394.66
2022-09-21T21:23:20.636Z,102389.56
2022-09-21T21:25:47.939Z,102396.81
2022-09-21T21:28:14.674Z,102401.28
2022-09-21T21:30:41.028Z,102398.81
2022-09-21T21:33:07.393Z,102401.72
2022-09-21T21:35:33.842Z,102401.16
2022-09-21T21:38:00.240Z,102398.59
2022-09-21T21:40:26.630Z,102393.53
2022-09-21T21:42:55.524Z,102404.19
2022-09-21T21:45:22.055Z,102401.63
2022-09-21T21:47:48.390Z,102390.72
2022-09-21T21:50:14.822Z,102401.28
2022-09-21T21:52:41.221Z,102400.63
2022-09-21T21:55:08.123Z,102397.09
2022-09-21T21:57:34.799Z,102387.22
2022-09-21T22:00:01.431Z,102403.69
2022-09-21T22:02:29.517Z,102400.28
2022-09-21T22:04:55.976Z,102391.72
2022-09-21T22:07:22.349Z,102395.31
2022-09-21T22:09:48.690Z,102368.69
2022-09-21T22:12:15.601Z,102391.13
2022-09-21T22:14:42.014Z,102397.63
2022-09-21T22:17:08.376Z,102393.44
2022-09-21T22:19:35.280Z,102380.72
2022-09-21T22:22:01.604Z,102382.81
2022-09-21T22:24:28.050Z,102387.09
2022-09-21T22:26:54.454Z,102379.28
2022-09-21T22:29:20.816Z,102390.03
2022-09-21T22:31:49.032Z,102393.75
2022-09-21T22:34:16.201Z,102383.38
2022-09-21T22:36:45.757Z,102391.56
2022-09-21T22:39:12.804Z,102388.22
2022-09-21T22:41:41.253Z,102388.31
2022-09-21T22:44:08.056Z,102390.31
2022-09-21T22:46:35.048Z,102389.56
2022-09-21T22:49:01.501Z,102382.72
2022-09-21T22:51:29.039Z,102358.00
2022-09-21T22:53:55.725Z,102388.22
2022-09-21T22:56:24.489Z,102374.25
2022-09-21T22:58:53.446Z,102378.81
2022-09-21T23:01:44.665Z,102374.44
2022-09-21T23:04:13.171Z,102377.28
2022-09-21T23:06:42.142Z,102356.63
2022-09-21T23:09:13.467Z,102351.03
2022-09-21T23:11:47.437Z,102374.91
2022-09-21T23:14:17.036Z,102376.72
2022-09-21T23:16:43.625Z,102370.63
2022-09-21T23:19:15.449Z,102374.16
2022-09-21T23:21:45.844Z,102368.25
2022-09-21T23:24:12.920Z,102363.00
2022-09-21T23:26:39.639Z,102370.81
2022-09-21T23:29:12.035Z,102366.34
2022-09-21T23:31:44.441Z,102338.34
2022-09-21T23:34:12.658Z,102367.47
2022-09-21T23:36:41.019Z,102367.69
2022-09-21T23:39:11.459Z,102366.91
2022-09-21T23:41:37.855Z,102356.34
2022-09-21T23:44:05.900Z,102352.16
2022-09-21T23:46:34.786Z,102352.25
2022-09-21T23:49:01.883Z,102332.56
2022-09-21T23:51:29.920Z,102354.31
2022-09-21T23:53:57.323Z,102337.72
2022-09-21T23:56:24.342Z,102337.97
2022-09-21T23:58:51.066Z,102358.06
